Station History


Daily Summary for February 9, 2012 Units:  Both    English   Metric
« Previous Day
Next Day »
Daily Weekly Monthly Yearly Custom
  High: Low: Average:
Temperature: 74.7 °F /  23.7 °C 41.0 °F /  5 °C 54.1 °F /  12.3 °C
Dew Point: 51.1 °F /  10.6 °C 38.9 °F /  3.8 °C 45.1 °F /  7.3 °C
Humidity: 95% 41% 75%
Wind Speed: 4.0mph /  6.4km/h - 1.6mph /  2.6km/h
Wind Gust: 4.0mph /  6.4km/h - -
Wind- - WSW
Pressure: 30.31 in /  1026.3 hPa 30.14 in /  1020.5 hPa -
Precipitation: 0.00 in /  0 mm    
Historical Graphs
 
 
Tabular Data for February 9, 2012
Time Temperature Dew Point Pressure Wind Wind Speed Wind Gust Humidity Rainfall Rate (Hourly)
00:01 44.9 °F /  7.2 °C 42.1 °F /  5.6 °C 30.26in /  1024.6hPa Calm     90% 0.00in /  0mm
00:06 45.1 °F /  7.3 °C 42.3 °F /  5.7 °C 30.26in /  1024.6hPa Calm     90% 0.00in /  0mm
00:11 45.1 °F /  7.3 °C 42.3 °F /  5.7 °C 30.26in /  1024.6hPa Calm     90% 0.00in /  0mm
00:16 44.9 °F /  7.2 °C 41.9 °F /  5.5 °C 30.26in /  1024.6hPa Calm     89% 0.00in /  0mm
00:21 44.7 °F /  7.1 °C 41.7 °F /  5.4 °C 30.26in /  1024.6hPa Calm     89% 0.00in /  0mm
00:26 44.4 °F /  6.9 °C 41.4 °F /  5.2 °C 30.26in /  1024.6hPa Calm     89% 0.00in /  0mm
00:31 44.3 °F /  6.8 °C 41.6 °F /  5.3 °C 30.27in /  1024.9hPa Calm     90% 0.00in /  0mm
00:36 44.5 °F /  6.9 °C 42.0 °F /  5.6 °C 30.27in /  1024.9hPa Calm     91% 0.00in /  0mm
00:41 44.5 °F /  6.9 °C 41.7 °F /  5.4 °C 30.26in /  1024.6hPa Calm     90% 0.00in /  0mm
00:46 44.5 °F /  6.9 °C 41.7 °F /  5.4 °C 30.27in /  1024.9hPa Calm     90% 0.00in /  0mm
00:47 44.5 °F /  6.9 °C 41.7 °F /  5.4 °C 30.27in /  1024.9hPa Calm     90% 0.00in /  0mm
00:52 44.5 °F /  6.9 °C 41.7 °F /  5.4 °C 30.27in /  1024.9hPa Calm     90% 0.00in /  0mm
00:57 44.5 °F /  6.9 °C 41.7 °F /  5.4 °C 30.27in /  1024.9hPa Calm     90% 0.00in /  0mm
01:02 44.4 °F /  6.9 °C 41.7 °F /  5.4 °C 30.27in /  1024.9hPa Calm     90% 0.00in /  0mm
01:07 44.2 °F /  6.8 °C 41.5 °F /  5.3 °C 30.27in /  1024.9hPa Calm     90% 0.00in /  0mm
01:12 44.0 °F /  6.7 °C 41.3 °F /  5.2 °C 30.27in /  1024.9hPa Calm     90% 0.00in /  0mm
01:17 43.8 °F /  6.6 °C 41.1 °F /  5.1 °C 30.27in /  1024.9hPa Calm     90% 0.00in /  0mm
01:22 43.6 °F /  6.4 °C 40.9 °F /  4.9 °C 30.28in /  1025.3hPa Calm     90% 0.00in /  0mm
01:27 43.4 °F /  6.3 °C 40.7 °F /  4.8 °C 30.28in /  1025.3hPa Calm     90% 0.00in /  0mm
01:32 43.2 °F /  6.2 °C 40.5 °F /  4.7 °C 30.28in /  1025.3hPa Calm     90% 0.00in /  0mm
01:37 42.9 °F /  6.1 °C 40.2 °F /  4.6 °C 30.28in /  1025.3hPa Calm     90% 0.00in /  0mm
01:42 42.6 °F /  5.9 °C 39.9 °F /  4.4 °C 30.28in /  1025.3hPa Calm     90% 0.00in /  0mm
01:47 42.8 °F /  6 °C 40.6 °F /  4.8 °C 30.28in /  1025.3hPa Calm     92% 0.00in /  0mm
01:52 42.9 °F /  6.1 °C 40.7 °F /  4.8 °C 30.28in /  1025.3hPa Calm     92% 0.00in /  0mm
01:53 42.9 °F /  6.1 °C 40.7 °F /  4.8 °C 30.27in /  1024.9hPa Calm     92% 0.00in /  0mm
01:58 42.8 °F /  6 °C 40.4 °F /  4.7 °C 30.28in /  1025.3hPa Calm     91% 0.00in /  0mm
02:03 42.8 °F /  6 °C 40.6 °F /  4.8 °C 30.28in /  1025.3hPa Calm     92% 0.00in /  0mm
02:08 42.9 °F /  6.1 °C 40.7 °F /  4.8 °C 30.28in /  1025.3hPa Calm     92% 0.00in /  0mm
02:13 42.9 °F /  6.1 °C 40.7 °F /  4.8 °C 30.28in /  1025.3hPa Calm     92% 0.00in /  0mm
02:18 42.8 °F /  6 °C 40.6 °F /  4.8 °C 30.28in /  1025.3hPa Calm     92% 0.00in /  0mm
02:23 42.8 °F /  6 °C 40.4 °F /  4.7 °C 30.28in /  1025.3hPa Calm     91% 0.00in /  0mm
02:28 42.6 °F /  5.9 °C 40.2 °F /  4.6 °C 30.28in /  1025.3hPa Calm     91% 0.00in /  0mm
02:33 42.4 °F /  5.8 °C 40.0 °F /  4.4 °C 30.28in /  1025.3hPa Calm     91% 0.00in /  0mm
02:38 42.3 °F /  5.7 °C 40.1 °F /  4.5 °C 30.28in /  1025.3hPa Calm     92% 0.00in /  0mm
02:43 42.0 °F /  5.6 °C 39.6 °F /  4.2 °C 30.28in /  1025.3hPa Calm     91% 0.00in /  0mm
02:48 41.9 °F /  5.5 °C 39.5 °F /  4.2 °C 30.28in /  1025.3hPa Calm     91% 0.00in /  0mm
02:53 41.7 °F /  5.4 °C 39.3 °F /  4.1 °C 30.28in /  1025.3hPa Calm     91% 0.00in /  0mm
02:58 41.6 °F /  5.3 °C 39.4 °F /  4.1 °C 30.28in /  1025.3hPa Calm     92% 0.00in /  0mm
03:03 41.9 °F /  5.5 °C 40.0 °F /  4.4 °C 30.28in /  1025.3hPa Calm     93% 0.00in /  0mm
03:08 42.5 °F /  5.8 °C 40.9 °F /  4.9 °C 30.28in /  1025.3hPa Calm     94% 0.00in /  0mm
03:13 42.7 °F /  5.9 °C 40.8 °F /  4.9 °C 30.28in /  1025.3hPa Calm     93% 0.00in /  0mm
03:18 42.9 °F /  6.1 °C 41.0 °F /  5 °C 30.28in /  1025.3hPa Calm     93% 0.00in /  0mm
03:23 42.9 °F /  6.1 °C 40.7 °F /  4.8 °C 30.28in /  1025.3hPa Calm     92% 0.00in /  0mm
03:28 42.9 °F /  6.1 °C 41.0 °F /  5 °C 30.28in /  1025.3hPa Calm     93% 0.00in /  0mm
03:33 43.2 °F /  6.2 °C 41.3 °F /  5.2 °C 30.28in /  1025.3hPa Calm     93% 0.00in /  0mm
03:38 43.4 °F /  6.3 °C 41.2 °F /  5.1 °C 30.28in /  1025.3hPa Calm     92% 0.00in /  0mm
03:43 43.3 °F /  6.3 °C 40.8 °F /  4.9 °C 30.28in /  1025.3hPa Calm     91% 0.00in /  0mm
03:48 43.1 °F /  6.2 °C 40.7 °F /  4.8 °C 30.28in /  1025.3hPa Calm     91% 0.00in /  0mm
03:53 43.1 °F /  6.2 °C 40.9 °F /  4.9 °C 30.28in /  1025.3hPa Calm     92% 0.00in /  0mm
03:58 43.0 °F /  6.1 °C 40.8 °F /  4.9 °C 30.28in /  1025.3hPa Calm     92% 0.00in /  0mm
04:03 42.9 °F /  6.1 °C 40.5 °F /  4.7 °C 30.28in /  1025.3hPa Calm     91% 0.00in /  0mm
04:08 42.9 °F /  6.1 °C 40.5 °F /  4.7 °C 30.28in /  1025.3hPa Calm     91% 0.00in /  0mm
04:13 42.7 °F /  5.9 °C 40.3 °F /  4.6 °C 30.28in /  1025.3hPa Calm     91% 0.00in /  0mm
04:18 42.7 °F /  5.9 °C 40.5 °F /  4.7 °C 30.28in /  1025.3hPa Calm     92% 0.00in /  0mm
04:23 42.5 °F /  5.8 °C 40.3 °F /  4.6 °C 30.28in /  1025.3hPa Calm     92% 0.00in /  0mm
04:28 42.5 °F /  5.8 °C 40.3 °F /  4.6 °C 30.28in /  1025.3hPa Calm     92% 0.00in /  0mm
04:33 42.4 °F /  5.8 °C 40.2 °F /  4.6 °C 30.28in /  1025.3hPa Calm     92% 0.00in /  0mm
04:38 42.4 °F /  5.8 °C 40.2 °F /  4.6 °C 30.28in /  1025.3hPa Calm     92% 0.00in /  0mm
04:43 42.3 °F /  5.7 °C 40.1 °F /  4.5 °C 30.28in /  1025.3hPa Calm     92% 0.00in /  0mm
04:48 42.3 °F /  5.7 °C 40.1 °F /  4.5 °C 30.28in /  1025.3hPa Calm     92% 0.00in /  0mm
04:53 42.2 °F /  5.7 °C 40.0 °F /  4.4 °C 30.28in /  1025.3hPa Calm     92% 0.00in /  0mm
04:58 41.9 °F /  5.5 °C 39.7 °F /  4.3 °C 30.28in /  1025.3hPa Calm     92% 0.00in /  0mm
05:03 41.7 °F /  5.4 °C 39.5 °F /  4.2 °C 30.28in /  1025.3hPa Calm     92% 0.00in /  0mm
05:08 41.5 °F /  5.3 °C 39.3 °F /  4.1 °C 30.28in /  1025.3hPa Calm     92% 0.00in /  0mm
05:13 41.4 °F /  5.2 °C 39.3 °F /  4.1 °C 30.28in /  1025.3hPa Calm     92% 0.00in /  0mm
05:18 41.3 °F /  5.2 °C 39.2 °F /  4 °C 30.29in /  1025.6hPa Calm     92% 0.00in /  0mm
05:23 41.2 °F /  5.1 °C 39.1 °F /  3.9 °C 30.29in /  1025.6hPa Calm     92% 0.00in /  0mm
05:28 41.1 °F /  5.1 °C 39.0 °F /  3.9 °C 30.29in /  1025.6hPa Calm     92% 0.00in /  0mm
05:33 41.0 °F /  5 °C 38.9 °F /  3.8 °C 30.29in /  1025.6hPa Calm     92% 0.00in /  0mm
05:38 41.1 °F /  5.1 °C 39.2 °F /  4 °C 30.29in /  1025.6hPa Calm     93% 0.00in /  0mm
05:43 41.5 °F /  5.3 °C 39.9 °F /  4.4 °C 30.28in /  1025.3hPa SW 1.1mph /  1.8km/h 1.1mph /  1.8km/h 94% 0.00in /  0mm
05:48 42.0 °F /  5.6 °C 40.4 °F /  4.7 °C 30.29in /  1025.6hPa Calm     94% 0.00in /  0mm
05:53 42.1 °F /  5.6 °C 40.5 °F /  4.7 °C 30.29in /  1025.6hPa Calm     94% 0.00in /  0mm
05:58 42.2 °F /  5.7 °C 40.6 °F /  4.8 °C 30.28in /  1025.3hPa Calm     94% 0.00in /  0mm
06:03 42.2 °F /  5.7 °C 40.3 °F /  4.6 °C 30.28in /  1025.3hPa Calm     93% 0.00in /  0mm
06:08 42.2 °F /  5.7 °C 40.6 °F /  4.8 °C 30.28in /  1025.3hPa Calm     94% 0.00in /  0mm
06:13 42.3 °F /  5.7 °C 40.7 °F /  4.8 °C 30.28in /  1025.3hPa Calm     94% 0.00in /  0mm
06:18 42.2 °F /  5.7 °C 40.3 °F /  4.6 °C 30.28in /  1025.3hPa Calm     93% 0.00in /  0mm
06:23 42.1 °F /  5.6 °C 40.2 °F /  4.6 °C 30.29in /  1025.6hPa Calm     93% 0.00in /  0mm
06:28 42.0 °F /  5.6 °C 40.1 °F /  4.5 °C 30.29in /  1025.6hPa Calm     93% 0.00in /  0mm
06:33 42.0 °F /  5.6 °C 40.1 °F /  4.5 °C 30.29in /  1025.6hPa Calm     93% 0.00in /  0mm
06:38 41.9 °F /  5.5 °C 40.0 °F /  4.4 °C 30.29in /  1025.6hPa Calm     93% 0.00in /  0mm
06:43 41.7 °F /  5.4 °C 39.5 °F /  4.2 °C 30.29in /  1025.6hPa Calm     92% 0.00in /  0mm
06:48 41.6 °F /  5.3 °C 39.4 °F /  4.1 °C 30.29in /  1025.6hPa Calm     92% 0.00in /  0mm
06:53 41.5 °F /  5.3 °C 39.6 °F /  4.2 °C 30.29in /  1025.6hPa Calm     93% 0.00in /  0mm
06:58 41.5 °F /  5.3 °C 39.3 °F /  4.1 °C 30.29in /  1025.6hPa Calm     92% 0.00in /  0mm
07:03 41.4 °F /  5.2 °C 39.3 °F /  4.1 °C 30.29in /  1025.6hPa Calm     92% 0.00in /  0mm
07:08 41.3 °F /  5.2 °C 39.2 °F /  4 °C 30.29in /  1025.6hPa Calm     92% 0.00in /  0mm
07:13 41.1 °F /  5.1 °C 39.0 °F /  3.9 °C 30.29in /  1025.6hPa Calm     92% 0.00in /  0mm
07:18 41.2 °F /  5.1 °C 39.3 °F /  4.1 °C 30.29in /  1025.6hPa Calm     93% 0.00in /  0mm
07:23 41.1 °F /  5.1 °C 39.2 °F /  4 °C 30.29in /  1025.6hPa Calm     93% 0.00in /  0mm
07:28 41.1 °F /  5.1 °C 39.2 °F /  4 °C 30.29in /  1025.6hPa Calm     93% 0.00in /  0mm
07:33 41.0 °F /  5 °C 39.1 °F /  3.9 °C 30.29in /  1025.6hPa Calm     93% 0.00in /  0mm
07:38 41.0 °F /  5 °C 39.1 °F /  3.9 °C 30.29in /  1025.6hPa Calm     93% 0.00in /  0mm
07:43 41.1 °F /  5.1 °C 39.2 °F /  4 °C 30.29in /  1025.6hPa Calm     93% 0.00in /  0mm
07:48 41.4 °F /  5.2 °C 39.8 °F /  4.3 °C 30.29in /  1025.6hPa Calm     94% 0.00in /  0mm
07:53 42.0 °F /  5.6 °C 40.7 °F /  4.8 °C 30.29in /  1025.6hPa Calm     95% 0.00in /  0mm
07:58 42.6 °F /  5.9 °C 41.3 °F /  5.2 °C 30.29in /  1025.6hPa Calm     95% 0.00in /  0mm
08:03 43.2 °F /  6.2 °C 41.6 °F /  5.3 °C 30.30in /  1026hPa Calm     94% 0.00in /  0mm
08:08 43.6 °F /  6.4 °C 41.7 °F /  5.4 °C 30.30in /  1026hPa Calm     93% 0.00in /  0mm
08:13 44.2 °F /  6.8 °C 42.0 °F /  5.6 °C 30.30in /  1026hPa Calm     92% 0.00in /  0mm
08:18 44.7 °F /  7.1 °C 42.5 °F /  5.8 °C 30.30in /  1026hPa Calm     92% 0.00in /  0mm
08:23 45.2 °F /  7.3 °C 42.7 °F /  5.9 °C 30.30in /  1026hPa Calm     91% 0.00in /  0mm
08:28 45.9 °F /  7.7 °C 42.8 °F /  6 °C 30.30in /  1026hPa Calm     89% 0.00in /  0mm
08:33 46.5 °F /  8.1 °C 43.4 °F /  6.3 °C 30.30in /  1026hPa Calm     89% 0.00in /  0mm
08:38 47.4 °F /  8.6 °C 43.7 °F /  6.5 °C 30.30in /  1026hPa SW 1.1mph /  1.8km/h 1.1mph /  1.8km/h 87% 0.00in /  0mm
08:43 48.1 °F /  8.9 °C 44.1 °F /  6.7 °C 30.30in /  1026hPa Calm     86% 0.00in /  0mm
08:48 48.6 °F /  9.2 °C 44.3 °F /  6.8 °C 30.30in /  1026hPa Calm     85% 0.00in /  0mm
08:53 49.0 °F /  9.4 °C 44.4 °F /  6.9 °C 30.30in /  1026hPa SW 1.1mph /  1.8km/h   84% 0.00in /  0mm
08:58 49.6 °F /  9.8 °C 45.0 °F /  7.2 °C 30.30in /  1026hPa Calm     84% 0.00in /  0mm
09:03 50.2 °F /  10.1 °C 44.9 °F /  7.2 °C 30.31in /  1026.3hPa Calm     82% 0.00in /  0mm
09:08 50.6 °F /  10.3 °C 45.3 °F /  7.4 °C 30.31in /  1026.3hPa WSW 1.1mph /  1.8km/h   82% 0.00in /  0mm
09:13 51.0 °F /  10.6 °C 45.7 °F /  7.6 °C 30.31in /  1026.3hPa Calm     82% 0.00in /  0mm
09:18 51.5 °F /  10.8 °C 46.5 °F /  8.1 °C 30.30in /  1026hPa Calm     83% 0.00in /  0mm
09:23 52.0 °F /  11.1 °C 46.7 °F /  8.2 °C 30.30in /  1026hPa Calm     82% 0.00in /  0mm
09:28 52.4 °F /  11.3 °C 46.4 °F /  8 °C 30.30in /  1026hPa WSW 1.1mph /  1.8km/h 1.1mph /  1.8km/h 80% 0.00in /  0mm
09:33 53.0 °F /  11.7 °C 47.0 °F /  8.3 °C 30.30in /  1026hPa NNW 1.0mph /  1.6km/h 1.0mph /  1.6km/h 80% 0.00in /  0mm
09:38 53.8 °F /  12.1 °C 47.4 °F /  8.6 °C 30.30in /  1026hPa NNW 1.1mph /  1.8km/h 1.1mph /  1.8km/h 79% 0.00in /  0mm
09:43 54.3 °F /  12.4 °C 47.2 °F /  8.4 °C 30.30in /  1026hPa NNW 1.0mph /  1.6km/h 1.0mph /  1.6km/h 77% 0.00in /  0mm
09:48 54.9 °F /  12.7 °C 47.1 °F /  8.4 °C 30.30in /  1026hPa North 1.1mph /  1.8km/h 1.1mph /  1.8km/h 75% 0.00in /  0mm
09:53 55.4 °F /  13 °C 45.8 °F /  7.7 °C 30.30in /  1026hPa Calm     70% 0.00in /  0mm
09:58 55.8 °F /  13.2 °C 45.8 °F /  7.7 °C 30.30in /  1026hPa NNW 1.1mph /  1.8km/h   69% 0.00in /  0mm
10:03 56.3 °F /  13.5 °C 46.3 °F /  7.9 °C 30.30in /  1026hPa NNW 1.1mph /  1.8km/h   69% 0.00in /  0mm
10:08 56.7 °F /  13.7 °C 46.3 °F /  7.9 °C 30.30in /  1026hPa West 1.1mph /  1.8km/h   68% 0.00in /  0mm
10:13 57.2 °F /  14 °C 46.7 °F /  8.2 °C 30.30in /  1026hPa Calm   0.3mph /  0.5km/h 68% 0.00in /  0mm
10:18 57.9 °F /  14.4 °C 46.6 °F /  8.1 °C 30.29in /  1025.6hPa SSW 1.1mph /  1.8km/h 1.1mph /  1.8km/h 66% 0.00in /  0mm
10:23 58.5 °F /  14.7 °C 46.8 °F /  8.2 °C 30.29in /  1025.6hPa SW 1.0mph /  1.6km/h 1.0mph /  1.6km/h 65% 0.00in /  0mm
10:28 59.2 °F /  15.1 °C 46.6 °F /  8.1 °C 30.29in /  1025.6hPa SW 1.1mph /  1.8km/h   63% 0.00in /  0mm
10:33 59.8 °F /  15.4 °C 47.6 °F /  8.7 °C 30.29in /  1025.6hPa SW 1.1mph /  1.8km/h 1.1mph /  1.8km/h 64% 0.00in /  0mm
10:38 60.4 °F /  15.8 °C 46.9 °F /  8.3 °C 30.29in /  1025.6hPa SSW 1.1mph /  1.8km/h 1.1mph /  1.8km/h 61% 0.00in /  0mm
10:43 60.8 °F /  16 °C 46.8 °F /  8.2 °C 30.28in /  1025.3hPa West 1.1mph /  1.8km/h 1.1mph /  1.8km/h 60% 0.00in /  0mm
10:49 61.2 °F /  16.2 °C 46.8 °F /  8.2 °C 30.28in /  1025.3hPa South 1.1mph /  1.8km/h 1.1mph /  1.8km/h 59% 0.00in /  0mm
10:54 61.8 °F /  16.6 °C 47.3 °F /  8.5 °C 30.28in /  1025.3hPa SW 1.1mph /  1.8km/h   59% 0.00in /  0mm
10:59 62.2 °F /  16.8 °C 47.7 °F /  8.7 °C 30.28in /  1025.3hPa SSW 1.1mph /  1.8km/h 1.1mph /  1.8km/h 59% 0.00in /  0mm
11:04 62.6 °F /  17 °C 47.6 °F /  8.7 °C 30.28in /  1025.3hPa Calm     58% 0.00in /  0mm
11:09 63.1 °F /  17.3 °C 47.1 °F /  8.4 °C 30.28in /  1025.3hPa WSW 2.3mph /  3.7km/h 2.3mph /  3.7km/h 56% 0.00in /  0mm
11:14 63.5 °F /  17.5 °C 48.0 °F /  8.9 °C 30.27in /  1024.9hPa Calm   0.1mph /  0.2km/h 57% 0.00in /  0mm
11:19 63.8 °F /  17.7 °C 47.8 °F /  8.8 °C 30.27in /  1024.9hPa SSW 1.1mph /  1.8km/h   56% 0.00in /  0mm
11:24 64.3 °F /  17.9 °C 47.3 °F /  8.5 °C 30.27in /  1024.9hPa SW 1.1mph /  1.8km/h   54% 0.00in /  0mm
11:29 64.5 °F /  18.1 °C 48.0 °F /  8.9 °C 30.26in /  1024.6hPa South 1.1mph /  1.8km/h 1.1mph /  1.8km/h 55% 0.00in /  0mm
11:34 64.7 °F /  18.2 °C 47.7 °F /  8.7 °C 30.26in /  1024.6hPa West 1.1mph /  1.8km/h 1.1mph /  1.8km/h 54% 0.00in /  0mm
11:39 65.1 °F /  18.4 °C 47.5 °F /  8.6 °C 30.25in /  1024.3hPa WNW 1.1mph /  1.8km/h   53% 0.00in /  0mm
11:44 65.7 °F /  18.7 °C 48.1 °F /  8.9 °C 30.25in /  1024.3hPa Calm     53% 0.00in /  0mm
11:49 66.3 °F /  19.1 °C 47.6 °F /  8.7 °C 30.25in /  1024.3hPa SSW 2.3mph /  3.7km/h 2.3mph /  3.7km/h 51% 0.00in /  0mm
11:54 66.5 °F /  19.2 °C 47.8 °F /  8.8 °C 30.25in /  1024.3hPa WNW 1.1mph /  1.8km/h 1.1mph /  1.8km/h 51% 0.00in /  0mm
11:59 66.6 °F /  19.2 °C 47.4 °F /  8.6 °C 30.25in /  1024.3hPa WSW 3.5mph /  5.6km/h   50% 0.00in /  0mm
12:04 67.1 °F /  19.5 °C 48.4 °F /  9.1 °C 30.24in /  1023.9hPa NNW 1.1mph /  1.8km/h 1.1mph /  1.8km/h 51% 0.00in /  0mm
12:09 67.4 °F /  19.7 °C 48.1 °F /  8.9 °C 30.24in /  1023.9hPa North 2.3mph /  3.7km/h 2.3mph /  3.7km/h 50% 0.00in /  0mm
12:14 67.7 °F /  19.8 °C 47.8 °F /  8.8 °C 30.24in /  1023.9hPa SSW 1.1mph /  1.8km/h 1.1mph /  1.8km/h 49% 0.00in /  0mm
12:19 68.4 °F /  20.2 °C 49.0 °F /  9.4 °C 30.23in /  1023.6hPa SW 1.1mph /  1.8km/h 1.1mph /  1.8km/h 50% 0.00in /  0mm
12:24 68.9 °F /  20.5 °C 48.4 °F /  9.1 °C 30.23in /  1023.6hPa NW 2.3mph /  3.7km/h 2.3mph /  3.7km/h 48% 0.00in /  0mm
12:29 68.5 °F /  20.3 °C 48.0 °F /  8.9 °C 30.23in /  1023.6hPa WSW 1.1mph /  1.8km/h 1.1mph /  1.8km/h 48% 0.00in /  0mm
12:34 68.9 °F /  20.5 °C 48.4 °F /  9.1 °C 30.22in /  1023.2hPa NNW 2.3mph /  3.7km/h 2.3mph /  3.7km/h 48% 0.00in /  0mm
12:39 69.1 °F /  20.6 °C 48.0 °F /  8.9 °C 30.22in /  1023.2hPa NNW 2.3mph /  3.7km/h 2.3mph /  3.7km/h 47% 0.00in /  0mm
12:44 69.0 °F /  20.6 °C 48.5 °F /  9.2 °C 30.22in /  1023.2hPa NNE 1.1mph /  1.8km/h 1.1mph /  1.8km/h 48% 0.00in /  0mm
12:49 69.4 °F /  20.8 °C 48.3 °F /  9.1 °C 30.22in /  1023.2hPa Calm     47% 0.00in /  0mm
12:54 69.9 °F /  21.1 °C 48.2 °F /  9 °C 30.21in /  1022.9hPa SSW 1.1mph /  1.8km/h 1.1mph /  1.8km/h 46% 0.00in /  0mm
12:59 70.2 °F /  21.2 °C 47.3 °F /  8.5 °C 30.22in /  1023.2hPa WNW 3.5mph /  5.6km/h 3.5mph /  5.6km/h 44% 0.00in /  0mm
13:04 70.6 °F /  21.4 °C 48.2 °F /  9 °C 30.21in /  1022.9hPa North 1.1mph /  1.8km/h   45% 0.00in /  0mm
13:09 71.0 °F /  21.7 °C 48.0 °F /  8.9 °C 30.21in /  1022.9hPa West 2.3mph /  3.7km/h 2.3mph /  3.7km/h 44% 0.00in /  0mm
13:14 70.9 °F /  21.6 °C 47.9 °F /  8.8 °C 30.21in /  1022.9hPa NNW 2.3mph /  3.7km/h 2.3mph /  3.7km/h 44% 0.00in /  0mm
13:19 71.1 °F /  21.7 °C 48.7 °F /  9.3 °C 30.20in /  1022.6hPa WNW 2.3mph /  3.7km/h 2.3mph /  3.7km/h 45% 0.00in /  0mm
13:24 71.1 °F /  21.7 °C 47.5 °F /  8.6 °C 30.20in /  1022.6hPa WNW 1.1mph /  1.8km/h 1.1mph /  1.8km/h 43% 0.00in /  0mm
13:29 71.6 °F /  22 °C 49.1 °F /  9.5 °C 30.20in /  1022.6hPa NNW 1.1mph /  1.8km/h 1.1mph /  1.8km/h 45% 0.00in /  0mm
13:34 72.1 °F /  22.3 °C 48.4 °F /  9.1 °C 30.20in /  1022.6hPa NNE 3.0mph /  4.8km/h 3.0mph /  4.8km/h 43% 0.00in /  0mm
13:39 72.1 °F /  22.3 °C 48.4 °F /  9.1 °C 30.20in /  1022.6hPa ENE 1.1mph /  1.8km/h 1.1mph /  1.8km/h 43% 0.00in /  0mm
13:44 72.5 °F /  22.5 °C 48.1 °F /  8.9 °C 30.20in /  1022.6hPa SSE 2.0mph /  3.2km/h 2.0mph /  3.2km/h 42% 0.00in /  0mm
13:49 72.6 °F /  22.6 °C 48.8 °F /  9.3 °C 30.19in /  1022.2hPa SSW 1.1mph /  1.8km/h 1.1mph /  1.8km/h 43% 0.00in /  0mm
13:54 72.8 °F /  22.7 °C 49.6 °F /  9.8 °C 30.19in /  1022.2hPa NNW 4.0mph /  6.4km/h 4.0mph /  6.4km/h 44% 0.00in /  0mm
13:59 72.6 °F /  22.6 °C 48.2 °F /  9 °C 30.19in /  1022.2hPa West 2.3mph /  3.7km/h 2.3mph /  3.7km/h 42% 0.00in /  0mm
14:04 72.6 °F /  22.6 °C 48.8 °F /  9.3 °C 30.19in /  1022.2hPa WNW 2.3mph /  3.7km/h 2.3mph /  3.7km/h 43% 0.00in /  0mm
14:09 72.9 °F /  22.7 °C 48.5 °F /  9.2 °C 30.19in /  1022.2hPa SE 1.1mph /  1.8km/h 1.1mph /  1.8km/h 42% 0.00in /  0mm
14:14 73.0 °F /  22.8 °C 49.2 °F /  9.6 °C 30.19in /  1022.2hPa NW 2.3mph /  3.7km/h 2.3mph /  3.7km/h 43% 0.00in /  0mm
14:19 72.6 °F /  22.6 °C 48.8 °F /  9.3 °C 30.18in /  1021.9hPa ENE 2.3mph /  3.7km/h 2.3mph /  3.7km/h 43% 0.00in /  0mm
14:24 72.6 °F /  22.6 °C 48.8 °F /  9.3 °C 30.18in /  1021.9hPa ENE 1.1mph /  1.8km/h   43% 0.00in /  0mm
14:29 73.0 °F /  22.8 °C 48.5 °F /  9.2 °C 30.18in /  1021.9hPa West 2.3mph /  3.7km/h 2.3mph /  3.7km/h 42% 0.00in /  0mm
14:34 72.7 °F /  22.6 °C 49.5 °F /  9.7 °C 30.17in /  1021.6hPa WSW 1.1mph /  1.8km/h 1.1mph /  1.8km/h 44% 0.00in /  0mm
14:39 73.2 °F /  22.9 °C 49.4 °F /  9.7 °C 30.17in /  1021.6hPa West 3.5mph /  5.6km/h 3.5mph /  5.6km/h 43% 0.00in /  0mm
14:44 73.1 °F /  22.8 °C 49.3 °F /  9.6 °C 30.17in /  1021.6hPa NW 3.5mph /  5.6km/h 3.5mph /  5.6km/h 43% 0.00in /  0mm
14:49 73.2 °F /  22.9 °C 49.4 °F /  9.7 °C 30.17in /  1021.6hPa SSW 1.1mph /  1.8km/h 1.1mph /  1.8km/h 43% 0.00in /  0mm
14:54 73.6 °F /  23.1 °C 49.7 °F /  9.8 °C 30.17in /  1021.6hPa NW 1.1mph /  1.8km/h 1.1mph /  1.8km/h 43% 0.00in /  0mm
14:59 73.6 °F /  23.1 °C 49.1 °F /  9.5 °C 30.17in /  1021.6hPa SSE 1.1mph /  1.8km/h 1.1mph /  1.8km/h 42% 0.00in /  0mm
15:04 73.3 °F /  22.9 °C 49.4 °F /  9.7 °C 30.17in /  1021.6hPa SW 2.0mph /  3.2km/h 2.0mph /  3.2km/h 43% 0.00in /  0mm
15:09 73.7 °F /  23.2 °C 49.2 °F /  9.6 °C 30.16in /  1021.2hPa WSW 1.1mph /  1.8km/h 1.1mph /  1.8km/h 42% 0.00in /  0mm
15:14 73.4 °F /  23 °C 48.9 °F /  9.4 °C 30.16in /  1021.2hPa West 3.5mph /  5.6km/h 3.5mph /  5.6km/h 42% 0.00in /  0mm
15:19 73.1 °F /  22.8 °C 49.3 °F /  9.6 °C 30.16in /  1021.2hPa SSW 2.0mph /  3.2km/h 2.0mph /  3.2km/h 43% 0.00in /  0mm
15:24 73.0 °F /  22.8 °C 49.2 °F /  9.6 °C 30.15in /  1020.9hPa NNE 1.1mph /  1.8km/h   43% 0.00in /  0mm
15:29 73.1 °F /  22.8 °C 49.3 °F /  9.6 °C 30.15in /  1020.9hPa Calm     43% 0.00in /  0mm
15:34 73.5 °F /  23.1 °C 49.0 °F /  9.4 °C 30.15in /  1020.9hPa West 2.3mph /  3.7km/h 2.3mph /  3.7km/h 42% 0.00in /  0mm
15:39 73.8 °F /  23.2 °C 49.3 °F /  9.6 °C 30.15in /  1020.9hPa North 2.3mph /  3.7km/h 2.3mph /  3.7km/h 42% 0.00in /  0mm
15:44 73.8 °F /  23.2 °C 49.3 °F /  9.6 °C 30.15in /  1020.9hPa Calm     42% 0.00in /  0mm
15:49 74.7 °F /  23.7 °C 49.4 °F /  9.7 °C 30.15in /  1020.9hPa Calm     41% 0.00in /  0mm
15:54 74.5 °F /  23.6 °C 49.2 °F /  9.6 °C 30.15in /  1020.9hPa West 2.3mph /  3.7km/h   41% 0.00in /  0mm
15:59 73.8 °F /  23.2 °C 49.3 °F /  9.6 °C 30.15in /  1020.9hPa NW 2.3mph /  3.7km/h 2.3mph /  3.7km/h 42% 0.00in /  0mm
16:04 73.9 °F /  23.3 °C 49.4 °F /  9.7 °C 30.15in /  1020.9hPa North 2.0mph /  3.2km/h 2.0mph /  3.2km/h 42% 0.00in /  0mm
16:09 73.5 °F /  23.1 °C 49.0 °F /  9.4 °C 30.15in /  1020.9hPa Calm   0.1mph /  0.2km/h 42% 0.00in /  0mm
16:14 72.9 °F /  22.7 °C 48.5 °F /  9.2 °C 30.15in /  1020.9hPa NNW 2.3mph /  3.7km/h   42% 0.00in /  0mm
16:19 72.2 °F /  22.3 °C 49.1 °F /  9.5 °C 30.15in /  1020.9hPa NNW 1.1mph /  1.8km/h 1.1mph /  1.8km/h 44% 0.00in /  0mm
16:24 71.7 °F /  22.1 °C 48.6 °F /  9.2 °C 30.15in /  1020.9hPa North 2.3mph /  3.7km/h 2.3mph /  3.7km/h 44% 0.00in /  0mm
16:29 71.2 °F /  21.8 °C 48.8 °F /  9.3 °C 30.15in /  1020.9hPa NNW 2.3mph /  3.7km/h 2.3mph /  3.7km/h 45% 0.00in /  0mm
16:34 70.7 °F /  21.5 °C 48.9 °F /  9.4 °C 30.15in /  1020.9hPa NW 1.1mph /  1.8km/h 1.1mph /  1.8km/h 46% 0.00in /  0mm
16:39 70.3 °F /  21.3 °C 49.1 °F /  9.5 °C 30.15in /  1020.9hPa Calm   0.4mph /  0.6km/h 47% 0.00in /  0mm
16:44 70.0 °F /  21.1 °C 48.8 °F /  9.3 °C 30.14in /  1020.5hPa WSW 1.1mph /  1.8km/h   47% 0.00in /  0mm
16:49 69.7 °F /  20.9 °C 49.1 °F /  9.5 °C 30.15in /  1020.9hPa Calm     48% 0.00in /  0mm
16:54 69.3 °F /  20.7 °C 50.9 °F /  10.5 °C 30.15in /  1020.9hPa South 1.1mph /  1.8km/h 1.1mph /  1.8km/h 52% 0.00in /  0mm
16:59 68.7 °F /  20.4 °C 50.9 °F /  10.5 °C 30.15in /  1020.9hPa SE 1.1mph /  1.8km/h   53% 0.00in /  0mm
17:04 68.2 °F /  20.1 °C 50.9 °F /  10.5 °C 30.15in /  1020.9hPa SSW 1.1mph /  1.8km/h   54% 0.00in /  0mm
17:09 67.7 °F /  19.8 °C 50.9 °F /  10.5 °C 30.15in /  1020.9hPa South 2.3mph /  3.7km/h 2.3mph /  3.7km/h 55% 0.00in /  0mm
17:14 67.2 °F /  19.6 °C 51.0 °F /  10.6 °C 30.15in /  1020.9hPa WNW 1.1mph /  1.8km/h 1.1mph /  1.8km/h 56% 0.00in /  0mm
17:19 66.7 °F /  19.3 °C 51.0 °F /  10.6 °C 30.15in /  1020.9hPa WSW 1.1mph /  1.8km/h 1.1mph /  1.8km/h 57% 0.00in /  0mm
17:24 66.3 °F /  19.1 °C 51.1 °F /  10.6 °C 30.15in /  1020.9hPa West 1.1mph /  1.8km/h 1.1mph /  1.8km/h 58% 0.00in /  0mm
17:29 65.9 °F /  18.8 °C 50.7 °F /  10.4 °C 30.16in /  1021.2hPa West 1.1mph /  1.8km/h 1.1mph /  1.8km/h 58% 0.00in /  0mm
17:34 65.5 °F /  18.6 °C 50.3 °F /  10.2 °C 30.16in /  1021.2hPa West 1.1mph /  1.8km/h 1.1mph /  1.8km/h 58% 0.00in /  0mm
17:39 65.0 °F /  18.3 °C 50.3 °F /  10.2 °C 30.16in /  1021.2hPa Calm     59% 0.00in /  0mm
17:44 64.4 °F /  18 °C 50.2 °F /  10.1 °C 30.16in /  1021.2hPa Calm     60% 0.00in /  0mm
17:49 63.8 °F /  17.7 °C 50.1 °F /  10.1 °C 30.16in /  1021.2hPa Calm     61% 0.00in /  0mm
17:54 63.2 °F /  17.3 °C 49.5 °F /  9.7 °C 30.16in /  1021.2hPa Calm     61% 0.00in /  0mm
17:59 62.5 °F /  16.9 °C 49.7 °F /  9.8 °C 30.16in /  1021.2hPa Calm     63% 0.00in /  0mm
18:05 62.0 °F /  16.7 °C 49.3 °F /  9.6 °C 30.16in /  1021.2hPa Calm     63% 0.00in /  0mm
18:10 61.4 °F /  16.3 °C 49.5 °F /  9.7 °C 30.16in /  1021.2hPa Calm     65% 0.00in /  0mm
18:15 60.7 °F /  15.9 °C 49.3 °F /  9.6 °C 30.16in /  1021.2hPa Calm     66% 0.00in /  0mm
18:20 60.0 °F /  15.6 °C 49.0 °F /  9.4 °C 30.17in /  1021.6hPa Calm     67% 0.00in /  0mm
18:25 59.3 °F /  15.2 °C 49.1 °F /  9.5 °C 30.17in /  1021.6hPa Calm     69% 0.00in /  0mm
18:30 58.7 °F /  14.8 °C 48.9 °F /  9.4 °C 30.16in /  1021.2hPa Calm     70% 0.00in /  0mm
18:35 58.2 °F /  14.6 °C 49.2 °F /  9.6 °C 30.16in /  1021.2hPa Calm     72% 0.00in /  0mm
18:40 58.1 °F /  14.5 °C 49.5 °F /  9.7 °C 30.16in /  1021.2hPa Calm     73% 0.00in /  0mm
18:45 57.8 °F /  14.3 °C 48.8 °F /  9.3 °C 30.17in /  1021.6hPa Calm     72% 0.00in /  0mm
18:50 57.3 °F /  14.1 °C 48.7 °F /  9.3 °C 30.17in /  1021.6hPa Calm     73% 0.00in /  0mm
18:55 56.8 °F /  13.8 °C 48.6 °F /  9.2 °C 30.17in /  1021.6hPa Calm     74% 0.00in /  0mm
19:00 56.2 °F /  13.4 °C 48.4 °F /  9.1 °C 30.16in /  1021.2hPa Calm     75% 0.00in /  0mm
19:05 55.8 °F /  13.2 °C 48.3 °F /  9.1 °C 30.16in /  1021.2hPa Calm     76% 0.00in /  0mm
19:10 55.3 °F /  12.9 °C 48.2 °F /  9 °C 30.17in /  1021.6hPa Calm     77% 0.00in /  0mm
19:15 54.9 °F /  12.7 °C 47.8 °F /  8.8 °C 30.16in /  1021.2hPa Calm     77% 0.00in /  0mm
19:20 54.6 °F /  12.6 °C 47.9 °F /  8.8 °C 30.16in /  1021.2hPa Calm     78% 0.00in /  0mm
19:25 54.2 °F /  12.3 °C 47.8 °F /  8.8 °C 30.16in /  1021.2hPa Calm     79% 0.00in /  0mm
19:30 53.8 °F /  12.1 °C 47.8 °F /  8.8 °C 30.16in /  1021.2hPa Calm     80% 0.00in /  0mm
19:35 53.5 °F /  11.9 °C 47.8 °F /  8.8 °C 30.16in /  1021.2hPa Calm     81% 0.00in /  0mm
19:40 53.2 °F /  11.8 °C 47.5 °F /  8.6 °C 30.16in /  1021.2hPa Calm     81% 0.00in /  0mm
19:45 52.8 °F /  11.6 °C 47.1 °F /  8.4 °C 30.16in /  1021.2hPa Calm     81% 0.00in /  0mm
19:50 52.5 °F /  11.4 °C 46.8 °F /  8.2 °C 30.15in /  1020.9hPa Calm     81% 0.00in /  0mm
19:55 52.1 °F /  11.2 °C 46.8 °F /  8.2 °C 30.15in /  1020.9hPa Calm     82% 0.00in /  0mm
20:00 51.8 °F /  11 °C 46.5 °F /  8.1 °C 30.15in /  1020.9hPa Calm     82% 0.00in /  0mm
20:05 51.6 °F /  10.9 °C 46.6 °F /  8.1 °C 30.15in /  1020.9hPa Calm     83% 0.00in /  0mm
20:10 51.4 °F /  10.8 °C 46.7 °F /  8.2 °C 30.15in /  1020.9hPa Calm     84% 0.00in /  0mm
20:15 51.3 °F /  10.7 °C 46.6 °F /  8.1 °C 30.15in /  1020.9hPa Calm     84% 0.00in /  0mm
20:20 51.0 °F /  10.6 °C 46.6 °F /  8.1 °C 30.15in /  1020.9hPa Calm     85% 0.00in /  0mm
20:25 50.9 °F /  10.5 °C 46.6 °F /  8.1 °C 30.15in /  1020.9hPa Calm     85% 0.00in /  0mm
20:30 50.8 °F /  10.4 °C 46.5 °F /  8.1 °C 30.15in /  1020.9hPa Calm     85% 0.00in /  0mm
20:35 50.6 °F /  10.3 °C 46.6 °F /  8.1 °C 30.15in /  1020.9hPa Calm     86% 0.00in /  0mm
20:40 50.4 °F /  10.2 °C 46.4 °F /  8 °C 30.15in /  1020.9hPa Calm     86% 0.00in /  0mm
20:45 50.3 °F /  10.2 °C 46.6 °F /  8.1 °C 30.16in /  1021.2hPa Calm     87% 0.00in /  0mm
20:50 50.1 °F /  10.1 °C 46.4 °F /  8 °C 30.16in /  1021.2hPa Calm     87% 0.00in /  0mm
20:55 50.2 °F /  10.1 °C 46.5 °F /  8.1 °C 30.16in /  1021.2hPa Calm     87% 0.00in /  0mm
21:00 50.2 °F /  10.1 °C 46.5 °F /  8.1 °C 30.15in /  1020.9hPa Calm     87% 0.00in /  0mm
21:01 50.1 °F /  10.1 °C 46.4 °F /  8 °C 30.16in /  1021.2hPa Calm     87% 0.00in /  0mm
21:06 50.1 °F /  10.1 °C 46.4 °F /  8 °C 30.16in /  1021.2hPa Calm     87% 0.00in /  0mm
21:11 50.0 °F /  10 °C 46.6 °F /  8.1 °C 30.16in /  1021.2hPa Calm     88% 0.00in /  0mm
21:16 50.1 °F /  10.1 °C 46.7 °F /  8.2 °C 30.16in /  1021.2hPa Calm     88% 0.00in /  0mm
21:21 50.1 °F /  10.1 °C 46.7 °F /  8.2 °C 30.17in /  1021.6hPa Calm     88% 0.00in /  0mm
21:26 50.1 °F /  10.1 °C 46.7 °F /  8.2 °C 30.17in /  1021.6hPa Calm     88% 0.00in /  0mm
21:31 50.3 °F /  10.2 °C 46.6 °F /  8.1 °C 30.17in /  1021.6hPa Calm     87% 0.00in /  0mm
21:36 50.5 °F /  10.3 °C 46.8 °F /  8.2 °C 30.17in /  1021.6hPa Calm     87% 0.00in /  0mm
21:41 50.6 °F /  10.3 °C 46.6 °F /  8.1 °C 30.17in /  1021.6hPa Calm     86% 0.00in /  0mm
21:46 50.8 °F /  10.4 °C 46.5 °F /  8.1 °C 30.17in /  1021.6hPa Calm     85% 0.00in /  0mm
21:51 50.7 °F /  10.4 °C 46.4 °F /  8 °C 30.17in /  1021.6hPa Calm     85% 0.00in /  0mm
21:56 50.6 °F /  10.3 °C 45.9 °F /  7.7 °C 30.17in /  1021.6hPa Calm     84% 0.00in /  0mm
22:01 50.5 °F /  10.3 °C 45.8 °F /  7.7 °C 30.18in /  1021.9hPa Calm     84% 0.00in /  0mm
22:06 50.3 °F /  10.2 °C 46.0 °F /  7.8 °C 30.18in /  1021.9hPa Calm     85% 0.00in /  0mm
22:11 50.1 °F /  10.1 °C 45.8 °F /  7.7 °C 30.17in /  1021.6hPa Calm     85% 0.00in /  0mm
22:16 50.0 °F /  10 °C 46.0 °F /  7.8 °C 30.17in /  1021.6hPa Calm     86% 0.00in /  0mm
22:24 50.5 °F /  10.3 °C 46.2 °F /  7.9 °C 30.16in /  1021.2hPa Calm     85% 0.00in /  0mm
22:29 50.6 °F /  10.3 °C 45.9 °F /  7.7 °C 30.16in /  1021.2hPa Calm     84% 0.00in /  0mm
22:34 50.5 °F /  10.3 °C 46.2 °F /  7.9 °C 30.16in /  1021.2hPa Calm     85% 0.00in /  0mm
22:39 50.7 °F /  10.4 °C 46.4 °F /  8 °C 30.16in /  1021.2hPa Calm     85% 0.00in /  0mm
22:44 50.7 °F /  10.4 °C 46.4 °F /  8 °C 30.16in /  1021.2hPa Calm     85% 0.00in /  0mm
22:49 50.5 °F /  10.3 °C 46.2 °F /  7.9 °C 30.16in /  1021.2hPa Calm     85% 0.00in /  0mm
22:54 50.2 °F /  10.1 °C 45.9 °F /  7.7 °C 30.16in /  1021.2hPa Calm     85% 0.00in /  0mm
22:59 50.1 °F /  10.1 °C 46.1 °F /  7.8 °C 30.16in /  1021.2hPa Calm     86% 0.00in /  0mm
23:04 49.9 °F /  9.9 °C 45.9 °F /  7.7 °C 30.16in /  1021.2hPa Calm     86% 0.00in /  0mm
23:09 49.7 °F /  9.8 °C 45.7 °F /  7.6 °C 30.15in /  1020.9hPa Calm     86% 0.00in /  0mm
23:14 49.7 °F /  9.8 °C 46.0 °F /  7.8 °C 30.15in /  1020.9hPa Calm     87% 0.00in /  0mm
23:19 49.8 °F /  9.9 °C 46.1 °F /  7.8 °C 30.15in /  1020.9hPa Calm     87% 0.00in /  0mm
23:24 49.7 °F /  9.8 °C 45.7 °F /  7.6 °C 30.15in /  1020.9hPa Calm     86% 0.00in /  0mm
23:29 49.4 °F /  9.7 °C 45.4 °F /  7.4 °C 30.15in /  1020.9hPa Calm     86% 0.00in /  0mm
23:34 49.1 °F /  9.5 °C 45.4 °F /  7.4 °C 30.14in /  1020.5hPa Calm     87% 0.00in /  0mm
23:39 48.9 °F /  9.4 °C 45.2 °F /  7.3 °C 30.14in /  1020.5hPa Calm     87% 0.00in /  0mm
23:44 48.8 °F /  9.3 °C 45.1 °F /  7.3 °C 30.14in /  1020.5hPa Calm     87% 0.00in /  0mm
23:49 48.6 °F /  9.2 °C 44.9 °F /  7.2 °C 30.14in /  1020.5hPa Calm     87% 0.00in /  0mm
23:54 48.4 °F /  9.1 °C 44.7 °F /  7.1 °C 30.14in /  1020.5hPa Calm     87% 0.00in /  0mm
23:59 48.2 °F /  9 °C 44.8 °F /  7.1 °C 30.14in /  1020.5hPa Calm     88% 0.00in /  0mm
Compliments of Weather Underground